sensor_id;sensor_type;location;lat;lon;timestamp;temperature;humidity
20246;DHT22;10281;54.406;18.556;2022-11-15T00:00:47;8.70;99.90
20246;DHT22;10281;54.406;18.556;2022-11-15T00:03:18;8.90;99.90
20246;DHT22;10281;54.406;18.556;2022-11-15T00:05:45;8.80;99.90
20246;DHT22;10281;54.406;18.556;2022-11-15T00:08:11;8.90;99.90
20246;DHT22;10281;54.406;18.556;2022-11-15T00:10:38;8.90;99.90
20246;DHT22;10281;54.406;18.556;2022-11-15T00:13:07;8.90;99.90
20246;DHT22;10281;54.406;18.556;2022-11-15T00:15:35;8.90;99.90
20246;DHT22;10281;54.406;18.556;2022-11-15T00:18:03;8.90;99.90
20246;DHT22;10281;54.406;18.556;2022-11-15T00:20:30;9.00;99.90
20246;DHT22;10281;54.406;18.556;2022-11-15T00:22:56;9.00;99.90
20246;DHT22;10281;54.406;18.556;2022-11-15T00:25:23;8.90;99.90
20246;DHT22;10281;54.406;18.556;2022-11-15T00:27:49;8.90;99.90
20246;DHT22;10281;54.406;18.556;2022-11-15T00:30:17;8.80;99.90
20246;DHT22;10281;54.406;18.556;2022-11-15T00:32:44;8.90;99.90
20246;DHT22;10281;54.406;18.556;2022-11-15T00:35:11;8.90;99.90
20246;DHT22;10281;54.406;18.556;2022-11-15T00:37:37;8.90;99.90
20246;DHT22;10281;54.406;18.556;2022-11-15T00:40:04;8.90;99.90
20246;DHT22;10281;54.406;18.556;2022-11-15T00:42:32;8.90;99.90
20246;DHT22;10281;54.406;18.556;2022-11-15T00:44:59;9.00;99.90
20246;DHT22;10281;54.406;18.556;2022-11-15T00:47:26;9.00;99.90
20246;DHT22;10281;54.406;18.556;2022-11-15T00:49:52;9.00;99.90
20246;DHT22;10281;54.406;18.556;2022-11-15T00:52:19;9.00;99.90
20246;DHT22;10281;54.406;18.556;2022-11-15T00:54:45;9.00;99.90
20246;DHT22;10281;54.406;18.556;2022-11-15T00:57:12;9.00;99.90
20246;DHT22;10281;54.406;18.556;2022-11-15T00:59:39;8.90;99.90
20246;DHT22;10281;54.406;18.556;2022-11-15T01:02:05;8.90;99.90
20246;DHT22;10281;54.406;18.556;2022-11-15T01:04:32;8.90;99.90
20246;DHT22;10281;54.406;18.556;2022-11-15T01:06:58;8.90;99.90
20246;DHT22;10281;54.406;18.556;2022-11-15T01:09:25;9.00;99.90
20246;DHT22;10281;54.406;18.556;2022-11-15T01:11:52;8.90;99.90
20246;DHT22;10281;54.406;18.556;2022-11-15T01:14:18;8.90;99.90
20246;DHT22;10281;54.406;18.556;2022-11-15T01:16:45;8.90;99.90
20246;DHT22;10281;54.406;18.556;2022-11-15T01:19:12;8.90;99.90
20246;DHT22;10281;54.406;18.556;2022-11-15T01:21:38;8.90;99.90
20246;DHT22;10281;54.406;18.556;2022-11-15T01:24:05;8.90;99.90
20246;DHT22;10281;54.406;18.556;2022-11-15T01:26:32;9.00;99.90
20246;DHT22;10281;54.406;18.556;2022-11-15T01:28:58;8.90;99.90
20246;DHT22;10281;54.406;18.556;2022-11-15T01:31:25;8.80;99.90
20246;DHT22;10281;54.406;18.556;2022-11-15T01:33:51;8.80;99.90
20246;DHT22;10281;54.406;18.556;2022-11-15T01:36:20;8.90;99.90
20246;DHT22;10281;54.406;18.556;2022-11-15T01:38:56;8.90;99.90
20246;DHT22;10281;54.406;18.556;2022-11-15T01:41:26;8.90;99.90
20246;DHT22;10281;54.406;18.556;2022-11-15T01:43:57;8.90;99.90
20246;DHT22;10281;54.406;18.556;2022-11-15T01:46:33;8.90;99.90
20246;DHT22;10281;54.406;18.556;2022-11-15T01:49:04;8.90;99.90
20246;DHT22;10281;54.406;18.556;2022-11-15T01:51:33;8.80;99.90
20246;DHT22;10281;54.406;18.556;2022-11-15T01:54:04;8.80;99.90
20246;DHT22;10281;54.406;18.556;2022-11-15T01:56:33;8.80;99.90
20246;DHT22;10281;54.406;18.556;2022-11-15T01:59:04;8.70;99.90
20246;DHT22;10281;54.406;18.556;2022-11-15T02:01:33;8.80;99.90
20246;DHT22;10281;54.406;18.556;2022-11-15T02:04:06;8.80;99.90
20246;DHT22;10281;54.406;18.556;2022-11-15T02:06:32;8.80;99.90
20246;DHT22;10281;54.406;18.556;2022-11-15T02:09:00;8.80;99.90
20246;DHT22;10281;54.406;18.556;2022-11-15T02:11:27;8.70;99.90
20246;DHT22;10281;54.406;18.556;2022-11-15T02:13:54;8.80;99.90
20246;DHT22;10281;54.406;18.556;2022-11-15T02:16:34;8.70;99.90
20246;DHT22;10281;54.406;18.556;2022-11-15T02:19:09;8.80;99.90
20246;DHT22;10281;54.406;18.556;2022-11-15T02:21:37;8.80;99.90
20246;DHT22;10281;54.406;18.556;2022-11-15T02:27:42;8.70;99.90
20246;DHT22;10281;54.406;18.556;2022-11-15T02:30:15;8.70;99.90
20246;DHT22;10281;54.406;18.556;2022-11-15T02:32:50;8.70;99.90
20246;DHT22;10281;54.406;18.556;2022-11-15T02:35:33;8.70;99.90
20246;DHT22;10281;54.406;18.556;2022-11-15T02:38:03;8.70;99.90
20246;DHT22;10281;54.406;18.556;2022-11-15T02:40:41;8.70;99.90
20246;DHT22;10281;54.406;18.556;2022-11-15T02:43:11;8.70;99.90
20246;DHT22;10281;54.406;18.556;2022-11-15T02:45:48;8.70;99.90
20246;DHT22;10281;54.406;18.556;2022-11-15T02:48:15;8.40;99.90
20246;DHT22;10281;54.406;18.556;2022-11-15T02:50:43;8.30;99.90
20246;DHT22;10281;54.406;18.556;2022-11-15T02:53:11;8.10;99.90
20246;DHT22;10281;54.406;18.556;2022-11-15T02:55:42;8.20;99.90
20246;DHT22;10281;54.406;18.556;2022-11-15T03:00:48;8.10;99.90
20246;DHT22;10281;54.406;18.556;2022-11-15T03:03:29;8.10;99.90
20246;DHT22;10281;54.406;18.556;2022-11-15T03:06:03;8.10;99.90
20246;DHT22;10281;54.406;18.556;2022-11-15T03:08:32;8.20;99.90
20246;DHT22;10281;54.406;18.556;2022-11-15T03:11:08;8.10;99.90
20246;DHT22;10281;54.406;18.556;2022-11-15T03:16:18;8.30;99.90
20246;DHT22;10281;54.406;18.556;2022-11-15T03:18:47;8.30;99.90
20246;DHT22;10281;54.406;18.556;2022-11-15T03:21:16;8.40;99.90
20246;DHT22;10281;54.406;18.556;2022-11-15T03:23:47;8.40;99.90
20246;DHT22;10281;54.406;18.556;2022-11-15T03:26:21;8.40;99.90
20246;DHT22;10281;54.406;18.556;2022-11-15T03:28:54;8.40;99.90
20246;DHT22;10281;54.406;18.556;2022-11-15T03:31:22;8.40;99.90
20246;DHT22;10281;54.406;18.556;2022-11-15T03:33:58;8.30;99.90
20246;DHT22;10281;54.406;18.556;2022-11-15T03:36:25;8.20;99.90
20246;DHT22;10281;54.406;18.556;2022-11-15T03:38:56;8.10;99.90
20246;DHT22;10281;54.406;18.556;2022-11-15T03:41:29;8.10;99.90
20246;DHT22;10281;54.406;18.556;2022-11-15T03:44:04;8.20;99.90
20246;DHT22;10281;54.406;18.556;2022-11-15T03:46:32;8.20;99.90
20246;DHT22;10281;54.406;18.556;2022-11-15T03:49:12;8.20;99.90
20246;DHT22;10281;54.406;18.556;2022-11-15T03:51:39;8.20;99.90
20246;DHT22;10281;54.406;18.556;2022-11-15T03:54:06;8.00;99.90
20246;DHT22;10281;54.406;18.556;2022-11-15T03:56:33;7.90;99.90
20246;DHT22;10281;54.406;18.556;2022-11-15T03:58:59;7.80;99.90
20246;DHT22;10281;54.406;18.556;2022-11-15T04:01:26;7.70;99.90
20246;DHT22;10281;54.406;18.556;2022-11-15T04:03:53;7.70;99.90
20246;DHT22;10281;54.406;18.556;2022-11-15T04:06:19;7.80;99.90
20246;DHT22;10281;54.406;18.556;2022-11-15T04:08:46;7.80;99.90
20246;DHT22;10281;54.406;18.556;2022-11-15T04:11:13;7.90;99.90
20246;DHT22;10281;54.406;18.556;2022-11-15T04:13:40;7.90;99.90
20246;DHT22;10281;54.406;18.556;2022-11-15T04:16:07;7.90;99.90
20246;DHT22;10281;54.406;18.556;2022-11-15T04:18:34;7.90;99.90
20246;DHT22;10281;54.406;18.556;2022-11-15T04:21:00;7.90;99.90
20246;DHT22;10281;54.406;18.556;2022-11-15T04:23:32;8.00;99.90
20246;DHT22;10281;54.406;18.556;2022-11-15T04:26:08;7.90;99.90
20246;DHT22;10281;54.406;18.556;2022-11-15T04:28:36;7.80;99.90
20246;DHT22;10281;54.406;18.556;2022-11-15T04:31:07;7.80;99.90
20246;DHT22;10281;54.406;18.556;2022-11-15T04:33:34;7.80;99.90
20246;DHT22;10281;54.406;18.556;2022-11-15T04:36:00;7.80;99.90
20246;DHT22;10281;54.406;18.556;2022-11-15T04:38:35;7.80;99.90
20246;DHT22;10281;54.406;18.556;2022-11-15T04:41:02;7.80;99.90
20246;DHT22;10281;54.406;18.556;2022-11-15T04:43:29;7.90;99.90
20246;DHT22;10281;54.406;18.556;2022-11-15T04:45:55;7.90;99.90
20246;DHT22;10281;54.406;18.556;2022-11-15T04:48:22;7.90;99.90
20246;DHT22;10281;54.406;18.556;2022-11-15T04:50:49;7.90;99.90
20246;DHT22;10281;54.406;18.556;2022-11-15T04:53:16;8.00;99.90
20246;DHT22;10281;54.406;18.556;2022-11-15T04:55:46;8.00;99.90
20246;DHT22;10281;54.406;18.556;2022-11-15T04:58:12;8.00;99.90
20246;DHT22;10281;54.406;18.556;2022-11-15T05:00:39;8.10;99.90
20246;DHT22;10281;54.406;18.556;2022-11-15T05:03:06;8.10;99.90
20246;DHT22;10281;54.406;18.556;2022-11-15T05:05:38;8.10;99.90
20246;DHT22;10281;54.406;18.556;2022-11-15T05:08:05;8.20;99.90
20246;DHT22;10281;54.406;18.556;2022-11-15T05:10:31;8.20;99.90
20246;DHT22;10281;54.406;18.556;2022-11-15T05:12:58;8.10;99.90
20246;DHT22;10281;54.406;18.556;2022-11-15T05:15:25;8.10;99.90
20246;DHT22;10281;54.406;18.556;2022-11-15T05:17:57;8.00;99.90
20246;DHT22;10281;54.406;18.556;2022-11-15T05:20:22;8.00;99.90
20246;DHT22;10281;54.406;18.556;2022-11-15T05:22:48;8.00;99.90
20246;DHT22;10281;54.406;18.556;2022-11-15T05:25:15;8.00;99.90
20246;DHT22;10281;54.406;18.556;2022-11-15T05:27:41;7.90;99.90
20246;DHT22;10281;54.406;18.556;2022-11-15T05:30:08;7.90;99.90
20246;DHT22;10281;54.406;18.556;2022-11-15T05:32:35;7.90;99.90
20246;DHT22;10281;54.406;18.556;2022-11-15T05:35:03;7.90;99.90
20246;DHT22;10281;54.406;18.556;2022-11-15T05:37:32;7.90;99.90
20246;DHT22;10281;54.406;18.556;2022-11-15T05:39:59;7.90;99.90
20246;DHT22;10281;54.406;18.556;2022-11-15T05:42:26;8.00;99.90
20246;DHT22;10281;54.406;18.556;2022-11-15T05:44:54;8.00;99.90
20246;DHT22;10281;54.406;18.556;2022-11-15T05:47:23;8.00;99.90
20246;DHT22;10281;54.406;18.556;2022-11-15T05:49:52;8.00;99.90
20246;DHT22;10281;54.406;18.556;2022-11-15T05:52:22;8.00;99.90
20246;DHT22;10281;54.406;18.556;2022-11-15T05:54:50;7.90;99.90
20246;DHT22;10281;54.406;18.556;2022-11-15T05:57:18;7.90;99.90
20246;DHT22;10281;54.406;18.556;2022-11-15T05:59:45;7.90;99.90
20246;DHT22;10281;54.406;18.556;2022-11-15T06:02:11;8.00;99.90
20246;DHT22;10281;54.406;18.556;2022-11-15T06:04:38;8.00;99.90
20246;DHT22;10281;54.406;18.556;2022-11-15T06:07:05;8.10;99.90
20246;DHT22;10281;54.406;18.556;2022-11-15T06:09:31;8.10;99.90
20246;DHT22;10281;54.406;18.556;2022-11-15T06:11:58;8.00;99.90
20246;DHT22;10281;54.406;18.556;2022-11-15T06:14:24;8.10;99.90
20246;DHT22;10281;54.406;18.556;2022-11-15T06:16:51;8.10;99.90
20246;DHT22;10281;54.406;18.556;2022-11-15T06:19:18;8.10;99.90
20246;DHT22;10281;54.406;18.556;2022-11-15T06:21:44;8.00;99.90
20246;DHT22;10281;54.406;18.556;2022-11-15T06:24:11;8.00;99.90
20246;DHT22;10281;54.406;18.556;2022-11-15T06:26:37;8.00;99.90
20246;DHT22;10281;54.406;18.556;2022-11-15T06:29:04;8.00;99.90
20246;DHT22;10281;54.406;18.556;2022-11-15T06:31:31;8.00;99.90
20246;DHT22;10281;54.406;18.556;2022-11-15T06:33:59;8.00;99.90
20246;DHT22;10281;54.406;18.556;2022-11-15T06:36:25;8.10;99.90
20246;DHT22;10281;54.406;18.556;2022-11-15T06:38:52;8.00;99.90
20246;DHT22;10281;54.406;18.556;2022-11-15T06:41:19;7.90;99.90
20246;DHT22;10281;54.406;18.556;2022-11-15T06:43:46;7.80;99.90
20246;DHT22;10281;54.406;18.556;2022-11-15T06:46:13;7.90;99.90
20246;DHT22;10281;54.406;18.556;2022-11-15T06:48:40;7.90;99.90
20246;DHT22;10281;54.406;18.556;2022-11-15T06:51:06;7.90;99.90
20246;DHT22;10281;54.406;18.556;2022-11-15T06:53:33;7.90;99.90
20246;DHT22;10281;54.406;18.556;2022-11-15T06:56:01;7.90;99.90
20246;DHT22;10281;54.406;18.556;2022-11-15T06:58:28;8.00;99.90
20246;DHT22;10281;54.406;18.556;2022-11-15T07:01:00;8.00;99.90
20246;DHT22;10281;54.406;18.556;2022-11-15T07:03:27;8.00;99.90
20246;DHT22;10281;54.406;18.556;2022-11-15T07:05:55;8.00;99.90
20246;DHT22;10281;54.406;18.556;2022-11-15T07:08:23;8.10;99.90
20246;DHT22;10281;54.406;18.556;2022-11-15T07:10:50;8.10;99.90
20246;DHT22;10281;54.406;18.556;2022-11-15T07:13:16;8.20;99.90
20246;DHT22;10281;54.406;18.556;2022-11-15T07:15:43;8.10;99.90
20246;DHT22;10281;54.406;18.556;2022-11-15T07:18:10;8.10;99.90
20246;DHT22;10281;54.406;18.556;2022-11-15T07:20:36;8.10;99.90
20246;DHT22;10281;54.406;18.556;2022-11-15T07:23:04;8.10;99.90
20246;DHT22;10281;54.406;18.556;2022-11-15T07:25:31;8.20;99.90
20246;DHT22;10281;54.406;18.556;2022-11-15T07:27:59;8.30;99.90
20246;DHT22;10281;54.406;18.556;2022-11-15T07:30:26;8.20;99.90
20246;DHT22;10281;54.406;18.556;2022-11-15T07:32:55;8.20;99.90
20246;DHT22;10281;54.406;18.556;2022-11-15T07:35:23;8.30;99.90
20246;DHT22;10281;54.406;18.556;2022-11-15T07:37:55;8.30;99.90
20246;DHT22;10281;54.406;18.556;2022-11-15T07:40:23;8.30;99.90
20246;DHT22;10281;54.406;18.556;2022-11-15T07:42:49;8.20;99.90
20246;DHT22;10281;54.406;18.556;2022-11-15T07:45:20;8.20;99.90
20246;DHT22;10281;54.406;18.556;2022-11-15T07:47:48;8.30;99.90
20246;DHT22;10281;54.406;18.556;2022-11-15T07:50:16;8.20;99.90
20246;DHT22;10281;54.406;18.556;2022-11-15T07:52:43;8.30;99.90
20246;DHT22;10281;54.406;18.556;2022-11-15T07:55:09;8.20;99.90
20246;DHT22;10281;54.406;18.556;2022-11-15T07:57:36;8.10;99.90
20246;DHT22;10281;54.406;18.556;2022-11-15T08:00:04;8.20;99.90
20246;DHT22;10281;54.406;18.556;2022-11-15T08:02:32;8.20;99.90
20246;DHT22;10281;54.406;18.556;2022-11-15T08:04:58;8.20;99.90
20246;DHT22;10281;54.406;18.556;2022-11-15T08:07:28;8.20;99.90
20246;DHT22;10281;54.406;18.556;2022-11-15T08:09:55;8.20;99.90
20246;DHT22;10281;54.406;18.556;2022-11-15T08:12:22;8.30;99.90
20246;DHT22;10281;54.406;18.556;2022-11-15T08:14:49;8.30;99.90
20246;DHT22;10281;54.406;18.556;2022-11-15T08:17:16;8.30;99.90
20246;DHT22;10281;54.406;18.556;2022-11-15T08:19:42;8.30;99.90
20246;DHT22;10281;54.406;18.556;2022-11-15T08:22:09;8.30;99.90
20246;DHT22;10281;54.406;18.556;2022-11-15T08:24:36;8.30;99.90
20246;DHT22;10281;54.406;18.556;2022-11-15T08:27:02;8.30;99.90
20246;DHT22;10281;54.406;18.556;2022-11-15T08:29:29;8.30;99.90
20246;DHT22;10281;54.406;18.556;2022-11-15T08:31:55;8.30;99.90
20246;DHT22;10281;54.406;18.556;2022-11-15T08:34:22;8.40;99.90
20246;DHT22;10281;54.406;18.556;2022-11-15T08:36:49;8.40;99.90
20246;DHT22;10281;54.406;18.556;2022-11-15T08:39:15;8.40;99.90
20246;DHT22;10281;54.406;18.556;2022-11-15T08:41:42;8.40;99.90
20246;DHT22;10281;54.406;18.556;2022-11-15T08:44:10;8.40;99.90
20246;DHT22;10281;54.406;18.556;2022-11-15T08:46:37;8.50;99.90
20246;DHT22;10281;54.406;18.556;2022-11-15T08:49:03;8.50;99.90
20246;DHT22;10281;54.406;18.556;2022-11-15T08:51:30;8.50;99.90
20246;DHT22;10281;54.406;18.556;2022-11-15T08:53:56;8.40;99.90
20246;DHT22;10281;54.406;18.556;2022-11-15T08:56:23;8.40;99.90
20246;DHT22;10281;54.406;18.556;2022-11-15T08:58:50;8.50;99.90
20246;DHT22;10281;54.406;18.556;2022-11-15T09:01:18;8.40;99.90
20246;DHT22;10281;54.406;18.556;2022-11-15T09:03:45;8.40;99.90
20246;DHT22;10281;54.406;18.556;2022-11-15T09:06:12;8.40;99.90
20246;DHT22;10281;54.406;18.556;2022-11-15T09:08:39;8.40;99.90
20246;DHT22;10281;54.406;18.556;2022-11-15T09:11:06;8.50;99.90
20246;DHT22;10281;54.406;18.556;2022-11-15T09:13:34;8.50;99.90
20246;DHT22;10281;54.406;18.556;2022-11-15T09:16:03;8.50;99.90
20246;DHT22;10281;54.406;18.556;2022-11-15T09:18:30;8.50;99.90
20246;DHT22;10281;54.406;18.556;2022-11-15T09:20:58;8.50;99.90
20246;DHT22;10281;54.406;18.556;2022-11-15T09:23:26;8.30;99.90
20246;DHT22;10281;54.406;18.556;2022-11-15T09:25:58;8.40;99.90
20246;DHT22;10281;54.406;18.556;2022-11-15T09:28:25;8.40;99.90
20246;DHT22;10281;54.406;18.556;2022-11-15T09:30:55;8.40;99.90
20246;DHT22;10281;54.406;18.556;2022-11-15T09:33:23;8.40;99.90
20246;DHT22;10281;54.406;18.556;2022-11-15T09:35:49;8.40;99.90
20246;DHT22;10281;54.406;18.556;2022-11-15T09:38:16;8.40;99.90
20246;DHT22;10281;54.406;18.556;2022-11-15T09:40:43;8.30;99.90
20246;DHT22;10281;54.406;18.556;2022-11-15T09:46:08;8.40;99.90
20246;DHT22;10281;54.406;18.556;2022-11-15T09:48:42;8.50;99.90
20246;DHT22;10281;54.406;18.556;2022-11-15T09:51:12;8.50;99.90
20246;DHT22;10281;54.406;18.556;2022-11-15T09:53:43;8.50;99.90
20246;DHT22;10281;54.406;18.556;2022-11-15T09:56:22;8.50;99.90
20246;DHT22;10281;54.406;18.556;2022-11-15T09:59:15;8.60;99.90
20246;DHT22;10281;54.406;18.556;2022-11-15T10:02:15;8.60;99.90
20246;DHT22;10281;54.406;18.556;2022-11-15T10:04:42;8.60;99.90
20246;DHT22;10281;54.406;18.556;2022-11-15T10:07:24;8.50;99.90
20246;DHT22;10281;54.406;18.556;2022-11-15T10:09:55;8.40;99.90
20246;DHT22;10281;54.406;18.556;2022-11-15T10:12:23;8.40;99.90
20246;DHT22;10281;54.406;18.556;2022-11-15T10:14:58;8.40;99.90
20246;DHT22;10281;54.406;18.556;2022-11-15T10:17:33;8.40;99.90
20246;DHT22;10281;54.406;18.556;2022-11-15T10:20:02;8.50;99.90
20246;DHT22;10281;54.406;18.556;2022-11-15T10:22:35;8.50;99.90
20246;DHT22;10281;54.406;18.556;2022-11-15T10:30:21;8.40;99.90
20246;DHT22;10281;54.406;18.556;2022-11-15T10:32:48;8.50;99.90
20246;DHT22;10281;54.406;18.556;2022-11-15T10:35:23;8.60;99.90
20246;DHT22;10281;54.406;18.556;2022-11-15T10:37:50;8.60;99.90
20246;DHT22;10281;54.406;18.556;2022-11-15T10:40:21;8.60;99.90
20246;DHT22;10281;54.406;18.556;2022-11-15T10:45:29;8.70;99.90
20246;DHT22;10281;54.406;18.556;2022-11-15T10:47:53;8.60;99.90
20246;DHT22;10281;54.406;18.556;2022-11-15T10:50:27;8.60;99.90
20246;DHT22;10281;54.406;18.556;2022-11-15T10:52:55;8.70;99.90
20246;DHT22;10281;54.406;18.556;2022-11-15T10:55:25;8.60;99.90
20246;DHT22;10281;54.406;18.556;2022-11-15T10:57:56;8.60;99.90
20246;DHT22;10281;54.406;18.556;2022-11-15T11:00:29;8.60;99.90
20246;DHT22;10281;54.406;18.556;2022-11-15T11:02:59;8.60;99.90
20246;DHT22;10281;54.406;18.556;2022-11-15T11:05:32;8.70;99.90
20246;DHT22;10281;54.406;18.556;2022-11-15T11:08:05;8.70;99.90
20246;DHT22;10281;54.406;18.556;2022-11-15T11:10:32;8.80;99.90
20246;DHT22;10281;54.406;18.556;2022-11-15T11:13:13;8.80;99.90
20246;DHT22;10281;54.406;18.556;2022-11-15T11:15:43;8.70;99.90
20246;DHT22;10281;54.406;18.556;2022-11-15T11:18:19;8.70;99.90
20246;DHT22;10281;54.406;18.556;2022-11-15T11:20:50;8.70;99.90
20246;DHT22;10281;54.406;18.556;2022-11-15T11:23:44;8.80;99.90
20246;DHT22;10281;54.406;18.556;2022-11-15T11:28:54;8.80;99.90
20246;DHT22;10281;54.406;18.556;2022-11-15T11:31:29;8.70;99.90
20246;DHT22;10281;54.406;18.556;2022-11-15T11:34:04;8.70;99.90
20246;DHT22;10281;54.406;18.556;2022-11-15T11:36:38;8.70;99.90
20246;DHT22;10281;54.406;18.556;2022-11-15T11:39:38;8.80;99.90
20246;DHT22;10281;54.406;18.556;2022-11-15T11:42:14;8.80;99.90
20246;DHT22;10281;54.406;18.556;2022-11-15T11:44:51;8.80;99.90
20246;DHT22;10281;54.406;18.556;2022-11-15T11:47:24;8.90;99.90
20246;DHT22;10281;54.406;18.556;2022-11-15T11:49:57;8.80;99.90
20246;DHT22;10281;54.406;18.556;2022-11-15T11:52:42;8.70;99.90
20246;DHT22;10281;54.406;18.556;2022-11-15T11:55:16;8.70;99.90
20246;DHT22;10281;54.406;18.556;2022-11-15T11:58:03;8.80;99.90
20246;DHT22;10281;54.406;18.556;2022-11-15T12:00:31;8.80;99.90
20246;DHT22;10281;54.406;18.556;2022-11-15T12:03:05;8.80;99.90
20246;DHT22;10281;54.406;18.556;2022-11-15T12:05:35;8.80;99.90
20246;DHT22;10281;54.406;18.556;2022-11-15T12:08:15;8.80;99.90
20246;DHT22;10281;54.406;18.556;2022-11-15T12:10:37;8.80;99.90
20246;DHT22;10281;54.406;18.556;2022-11-15T12:13:10;8.80;99.90
20246;DHT22;10281;54.406;18.556;2022-11-15T12:15:45;8.80;99.90
20246;DHT22;10281;54.406;18.556;2022-11-15T12:18:15;8.90;99.90
20246;DHT22;10281;54.406;18.556;2022-11-15T12:23:22;8.90;99.90
20246;DHT22;10281;54.406;18.556;2022-11-15T12:25:51;8.90;99.90
20246;DHT22;10281;54.406;18.556;2022-11-15T12:28:30;8.90;99.90
20246;DHT22;10281;54.406;18.556;2022-11-15T12:30:59;8.90;99.90
20246;DHT22;10281;54.406;18.556;2022-11-15T12:33:32;8.90;99.90
20246;DHT22;10281;54.406;18.556;2022-11-15T12:36:04;8.90;99.90
20246;DHT22;10281;54.406;18.556;2022-11-15T12:38:55;8.90;99.90
20246;DHT22;10281;54.406;18.556;2022-11-15T12:41:25;8.90;99.90
20246;DHT22;10281;54.406;18.556;2022-11-15T12:43:52;8.90;99.90
20246;DHT22;10281;54.406;18.556;2022-11-15T12:46:22;8.90;99.90
20246;DHT22;10281;54.406;18.556;2022-11-15T12:48:53;8.90;99.90
20246;DHT22;10281;54.406;18.556;2022-11-15T12:57:28;8.90;99.90
20246;DHT22;10281;54.406;18.556;2022-11-15T12:59:57;8.80;99.90
20246;DHT22;10281;54.406;18.556;2022-11-15T13:02:46;8.80;99.90
20246;DHT22;10281;54.406;18.556;2022-11-15T13:06:00;8.80;99.90
20246;DHT22;10281;54.406;18.556;2022-11-15T13:08:33;8.90;99.90
20246;DHT22;10281;54.406;18.556;2022-11-15T13:10:41;8.90;99.90
20246;DHT22;10281;54.406;18.556;2022-11-15T13:13:09;8.90;99.90
20246;DHT22;10281;54.406;18.556;2022-11-15T13:15:44;8.90;99.90
20246;DHT22;10281;54.406;18.556;2022-11-15T13:18:26;8.90;99.90
20246;DHT22;10281;54.406;18.556;2022-11-15T13:20:53;9.00;99.90
20246;DHT22;10281;54.406;18.556;2022-11-15T13:23:21;9.00;99.90
20246;DHT22;10281;54.406;18.556;2022-11-15T13:25:54;9.00;99.90
20246;DHT22;10281;54.406;18.556;2022-11-15T13:31:16;9.00;99.90
20246;DHT22;10281;54.406;18.556;2022-11-15T13:33:41;8.90;99.90
20246;DHT22;10281;54.406;18.556;2022-11-15T13:36:20;8.90;99.90
20246;DHT22;10281;54.406;18.556;2022-11-15T13:38:55;8.90;99.90
20246;DHT22;10281;54.406;18.556;2022-11-15T13:41:26;8.90;99.90
20246;DHT22;10281;54.406;18.556;2022-11-15T13:43:53;8.90;99.90
20246;DHT22;10281;54.406;18.556;2022-11-15T13:46:26;8.90;99.90
20246;DHT22;10281;54.406;18.556;2022-11-15T13:48:55;8.90;99.90
20246;DHT22;10281;54.406;18.556;2022-11-15T13:54:03;8.80;99.90
20246;DHT22;10281;54.406;18.556;2022-11-15T13:56:31;8.80;99.90
20246;DHT22;10281;54.406;18.556;2022-11-15T13:58:58;8.80;99.90
20246;DHT22;10281;54.406;18.556;2022-11-15T14:01:27;8.80;99.90
20246;DHT22;10281;54.406;18.556;2022-11-15T14:03:57;8.80;99.90
20246;DHT22;10281;54.406;18.556;2022-11-15T14:06:27;8.80;99.90
20246;DHT22;10281;54.406;18.556;2022-11-15T14:11:54;8.70;99.90
20246;DHT22;10281;54.406;18.556;2022-11-15T14:14:23;8.70;99.90
20246;DHT22;10281;54.406;18.556;2022-11-15T14:16:55;8.70;99.90
20246;DHT22;10281;54.406;18.556;2022-11-15T14:19:38;8.60;99.90
20246;DHT22;10281;54.406;18.556;2022-11-15T14:27:31;8.50;99.90
20246;DHT22;10281;54.406;18.556;2022-11-15T14:30:00;8.50;99.90
20246;DHT22;10281;54.406;18.556;2022-11-15T14:32:37;8.40;99.90
20246;DHT22;10281;54.406;18.556;2022-11-15T14:34:59;8.40;99.90
20246;DHT22;10281;54.406;18.556;2022-11-15T14:37:28;8.40;99.90
20246;DHT22;10281;54.406;18.556;2022-11-15T14:39:54;8.40;99.90
20246;DHT22;10281;54.406;18.556;2022-11-15T14:42:23;8.40;99.90
20246;DHT22;10281;54.406;18.556;2022-11-15T14:44:50;8.40;99.90
20246;DHT22;10281;54.406;18.556;2022-11-15T14:47:18;8.40;99.90
20246;DHT22;10281;54.406;18.556;2022-11-15T14:49:45;8.40;99.90
20246;DHT22;10281;54.406;18.556;2022-11-15T14:52:26;8.30;99.90
20246;DHT22;10281;54.406;18.556;2022-11-15T14:54:55;8.50;99.90
20246;DHT22;10281;54.406;18.556;2022-11-15T14:57:22;8.40;99.90
20246;DHT22;10281;54.406;18.556;2022-11-15T14:59:48;8.30;99.90
20246;DHT22;10281;54.406;18.556;2022-11-15T15:02:19;8.30;99.90
20246;DHT22;10281;54.406;18.556;2022-11-15T15:04:46;8.30;99.90
20246;DHT22;10281;54.406;18.556;2022-11-15T15:07:13;8.30;99.90
20246;DHT22;10281;54.406;18.556;2022-11-15T15:09:40;8.30;99.90
20246;DHT22;10281;54.406;18.556;2022-11-15T15:12:15;8.30;99.90
20246;DHT22;10281;54.406;18.556;2022-11-15T15:14:43;8.30;99.90
20246;DHT22;10281;54.406;18.556;2022-11-15T15:17:09;8.20;99.90
20246;DHT22;10281;54.406;18.556;2022-11-15T15:19:36;8.20;99.90
20246;DHT22;10281;54.406;18.556;2022-11-15T15:22:03;8.20;99.90
20246;DHT22;10281;54.406;18.556;2022-11-15T15:24:29;8.20;99.90
20246;DHT22;10281;54.406;18.556;2022-11-15T15:26:56;8.20;99.90
20246;DHT22;10281;54.406;18.556;2022-11-15T15:29:22;8.10;99.90
20246;DHT22;10281;54.406;18.556;2022-11-15T15:31:49;8.10;99.90
20246;DHT22;10281;54.406;18.556;2022-11-15T15:34:15;8.10;99.90
20246;DHT22;10281;54.406;18.556;2022-11-15T15:36:42;8.30;99.90
20246;DHT22;10281;54.406;18.556;2022-11-15T15:39:10;8.10;99.90
20246;DHT22;10281;54.406;18.556;2022-11-15T15:41:37;8.10;99.90
20246;DHT22;10281;54.406;18.556;2022-11-15T15:44:04;8.20;99.90
20246;DHT22;10281;54.406;18.556;2022-11-15T15:46:31;8.20;99.90
20246;DHT22;10281;54.406;18.556;2022-11-15T15:48:57;8.20;99.90
20246;DHT22;10281;54.406;18.556;2022-11-15T15:51:24;8.20;99.90
20246;DHT22;10281;54.406;18.556;2022-11-15T15:53:50;8.10;99.90
20246;DHT22;10281;54.406;18.556;2022-11-15T15:56:19;8.20;99.90
20246;DHT22;10281;54.406;18.556;2022-11-15T15:58:46;8.20;99.90
20246;DHT22;10281;54.406;18.556;2022-11-15T16:01:12;8.30;99.90
20246;DHT22;10281;54.406;18.556;2022-11-15T16:03:39;8.30;99.90
20246;DHT22;10281;54.406;18.556;2022-11-15T16:06:25;8.20;99.90
20246;DHT22;10281;54.406;18.556;2022-11-15T16:08:51;8.20;99.90
20246;DHT22;10281;54.406;18.556;2022-11-15T16:11:17;8.10;99.90
20246;DHT22;10281;54.406;18.556;2022-11-15T16:13:44;8.20;99.90
20246;DHT22;10281;54.406;18.556;2022-11-15T16:16:13;8.20;99.90
20246;DHT22;10281;54.406;18.556;2022-11-15T16:18:39;8.20;99.90
20246;DHT22;10281;54.406;18.556;2022-11-15T16:21:08;8.30;99.90
20246;DHT22;10281;54.406;18.556;2022-11-15T16:23:34;8.30;99.90
20246;DHT22;10281;54.406;18.556;2022-11-15T16:26:01;8.20;99.90
20246;DHT22;10281;54.406;18.556;2022-11-15T16:28:31;8.20;99.90